sensor_id;sensor_type;location;lat;lon;timestamp;temperature;humidity
10530;DHT22;5313;48.834;9.228;2023-11-18T00:02:23;5.70;99.90
10530;DHT22;5313;48.834;9.228;2023-11-18T00:04:50;5.70;99.90
10530;DHT22;5313;48.834;9.228;2023-11-18T00:07:16;5.60;99.90
10530;DHT22;5313;48.834;9.228;2023-11-18T00:09:42;5.70;99.90
10530;DHT22;5313;48.834;9.228;2023-11-18T00:12:11;5.70;99.90
10530;DHT22;5313;48.834;9.228;2023-11-18T00:14:37;5.70;99.90
10530;DHT22;5313;48.834;9.228;2023-11-18T00:17:02;5.80;99.90
10530;DHT22;5313;48.834;9.228;2023-11-18T00:19:29;5.80;99.90
10530;DHT22;5313;48.834;9.228;2023-11-18T00:21:55;5.80;99.90
10530;DHT22;5313;48.834;9.228;2023-11-18T00:24:20;5.80;99.90
10530;DHT22;5313;48.834;9.228;2023-11-18T00:26:46;5.80;99.90
10530;DHT22;5313;48.834;9.228;2023-11-18T00:29:12;5.80;99.90
10530;DHT22;5313;48.834;9.228;2023-11-18T00:31:38;5.80;99.90
10530;DHT22;5313;48.834;9.228;2023-11-18T00:34:04;5.70;99.90
10530;DHT22;5313;48.834;9.228;2023-11-18T00:36:29;5.70;99.90
10530;DHT22;5313;48.834;9.228;2023-11-18T00:38:55;5.70;99.90
10530;DHT22;5313;48.834;9.228;2023-11-18T00:41:20;5.70;99.90
10530;DHT22;5313;48.834;9.228;2023-11-18T00:43:46;5.80;99.90
10530;DHT22;5313;48.834;9.228;2023-11-18T00:46:12;5.80;99.90
10530;DHT22;5313;48.834;9.228;2023-11-18T00:48:38;5.80;99.90
10530;DHT22;5313;48.834;9.228;2023-11-18T00:51:05;5.80;99.90
10530;DHT22;5313;48.834;9.228;2023-11-18T00:53:31;5.80;99.90
10530;DHT22;5313;48.834;9.228;2023-11-18T00:55:56;5.80;99.90
10530;DHT22;5313;48.834;9.228;2023-11-18T00:58:22;5.80;99.90
10530;DHT22;5313;48.834;9.228;2023-11-18T01:00:48;5.90;99.90
10530;DHT22;5313;48.834;9.228;2023-11-18T01:03:13;5.90;99.90
10530;DHT22;5313;48.834;9.228;2023-11-18T01:05:39;5.90;99.90
10530;DHT22;5313;48.834;9.228;2023-11-18T01:08:04;6.00;99.90
10530;DHT22;5313;48.834;9.228;2023-11-18T01:10:30;6.00;99.90
10530;DHT22;5313;48.834;9.228;2023-11-18T01:12:56;5.90;99.90
10530;DHT22;5313;48.834;9.228;2023-11-18T01:15:23;5.90;99.90
10530;DHT22;5313;48.834;9.228;2023-11-18T01:17:49;6.00;99.90
10530;DHT22;5313;48.834;9.228;2023-11-18T01:20:14;6.00;99.90
10530;DHT22;5313;48.834;9.228;2023-11-18T01:22:46;6.00;99.90
10530;DHT22;5313;48.834;9.228;2023-11-18T01:25:12;6.00;99.90
10530;DHT22;5313;48.834;9.228;2023-11-18T01:27:38;6.00;99.90
10530;DHT22;5313;48.834;9.228;2023-11-18T01:30:05;6.00;99.90
10530;DHT22;5313;48.834;9.228;2023-11-18T01:32:31;6.00;99.90
10530;DHT22;5313;48.834;9.228;2023-11-18T01:34:57;5.90;99.90
10530;DHT22;5313;48.834;9.228;2023-11-18T01:37:22;5.90;99.90
10530;DHT22;5313;48.834;9.228;2023-11-18T01:39:49;5.90;99.90
10530;DHT22;5313;48.834;9.228;2023-11-18T01:42:14;5.90;99.90
10530;DHT22;5313;48.834;9.228;2023-11-18T01:44:40;5.90;99.90
10530;DHT22;5313;48.834;9.228;2023-11-18T01:47:07;5.80;99.90
10530;DHT22;5313;48.834;9.228;2023-11-18T01:49:36;5.80;99.90
10530;DHT22;5313;48.834;9.228;2023-11-18T01:52:05;5.90;99.90
10530;DHT22;5313;48.834;9.228;2023-11-18T01:54:33;6.00;99.90
10530;DHT22;5313;48.834;9.228;2023-11-18T01:56:59;6.00;99.90
10530;DHT22;5313;48.834;9.228;2023-11-18T01:59:28;6.00;99.90
10530;DHT22;5313;48.834;9.228;2023-11-18T02:01:55;6.00;99.90
10530;DHT22;5313;48.834;9.228;2023-11-18T02:04:25;6.00;99.90
10530;DHT22;5313;48.834;9.228;2023-11-18T02:06:51;6.10;99.90
10530;DHT22;5313;48.834;9.228;2023-11-18T02:09:18;6.10;99.90
10530;DHT22;5313;48.834;9.228;2023-11-18T02:14:26;6.10;99.90
10530;DHT22;5313;48.834;9.228;2023-11-18T02:16:53;6.10;99.90
10530;DHT22;5313;48.834;9.228;2023-11-18T02:19:23;6.10;99.90
10530;DHT22;5313;48.834;9.228;2023-11-18T02:21:50;6.10;99.90
10530;DHT22;5313;48.834;9.228;2023-11-18T02:24:30;6.10;99.90
10530;DHT22;5313;48.834;9.228;2023-11-18T02:26:59;6.10;99.90
10530;DHT22;5313;48.834;9.228;2023-11-18T02:29:26;6.10;99.90
10530;DHT22;5313;48.834;9.228;2023-11-18T02:31:58;6.10;99.90
10530;DHT22;5313;48.834;9.228;2023-11-18T02:34:30;6.10;99.90
10530;DHT22;5313;48.834;9.228;2023-11-18T02:36:58;6.10;99.90
10530;DHT22;5313;48.834;9.228;2023-11-18T02:39:35;6.10;99.90
10530;DHT22;5313;48.834;9.228;2023-11-18T02:42:04;6.10;99.90
10530;DHT22;5313;48.834;9.228;2023-11-18T02:44:34;6.00;99.90
10530;DHT22;5313;48.834;9.228;2023-11-18T02:47:00;6.00;99.90
10530;DHT22;5313;48.834;9.228;2023-11-18T02:49:26;6.00;99.90
10530;DHT22;5313;48.834;9.228;2023-11-18T02:51:53;6.00;99.90
10530;DHT22;5313;48.834;9.228;2023-11-18T02:54:19;6.00;99.90
10530;DHT22;5313;48.834;9.228;2023-11-18T02:56:45;6.00;99.90
10530;DHT22;5313;48.834;9.228;2023-11-18T02:59:11;6.00;99.90
10530;DHT22;5313;48.834;9.228;2023-11-18T03:01:36;5.90;99.90
10530;DHT22;5313;48.834;9.228;2023-11-18T03:04:04;5.90;99.90
10530;DHT22;5313;48.834;9.228;2023-11-18T03:06:30;5.80;99.90
10530;DHT22;5313;48.834;9.228;2023-11-18T03:08:57;5.80;99.90
10530;DHT22;5313;48.834;9.228;2023-11-18T03:11:23;5.80;99.90
10530;DHT22;5313;48.834;9.228;2023-11-18T03:13:49;5.70;99.90
10530;DHT22;5313;48.834;9.228;2023-11-18T03:16:14;5.70;99.90
10530;DHT22;5313;48.834;9.228;2023-11-18T03:18:41;5.70;99.90
10530;DHT22;5313;48.834;9.228;2023-11-18T03:21:13;5.70;99.90
10530;DHT22;5313;48.834;9.228;2023-11-18T03:23:39;5.70;99.90
10530;DHT22;5313;48.834;9.228;2023-11-18T03:26:08;5.70;99.90
10530;DHT22;5313;48.834;9.228;2023-11-18T03:28:35;5.70;99.90
10530;DHT22;5313;48.834;9.228;2023-11-18T03:31:05;5.70;99.90
10530;DHT22;5313;48.834;9.228;2023-11-18T03:33:30;5.60;99.90
10530;DHT22;5313;48.834;9.228;2023-11-18T03:35:56;5.60;99.90
10530;DHT22;5313;48.834;9.228;2023-11-18T03:38:22;5.50;99.90
10530;DHT22;5313;48.834;9.228;2023-11-18T03:40:49;5.50;99.90
10530;DHT22;5313;48.834;9.228;2023-11-18T03:43:14;5.40;99.90
10530;DHT22;5313;48.834;9.228;2023-11-18T03:45:40;5.50;99.90
10530;DHT22;5313;48.834;9.228;2023-11-18T03:48:06;5.50;99.90
10530;DHT22;5313;48.834;9.228;2023-11-18T03:50:33;5.50;99.90
10530;DHT22;5313;48.834;9.228;2023-11-18T03:52:59;5.50;99.90
10530;DHT22;5313;48.834;9.228;2023-11-18T03:55:24;5.60;99.90
10530;DHT22;5313;48.834;9.228;2023-11-18T03:57:53;5.60;99.90
10530;DHT22;5313;48.834;9.228;2023-11-18T04:00:19;5.60;99.90
10530;DHT22;5313;48.834;9.228;2023-11-18T04:02:46;5.60;99.90
10530;DHT22;5313;48.834;9.228;2023-11-18T04:05:12;5.60;99.90
10530;DHT22;5313;48.834;9.228;2023-11-18T04:07:38;5.60;99.90
10530;DHT22;5313;48.834;9.228;2023-11-18T04:10:07;5.60;99.90
10530;DHT22;5313;48.834;9.228;2023-11-18T04:12:35;5.60;99.90
10530;DHT22;5313;48.834;9.228;2023-11-18T04:15:01;5.60;99.90
10530;DHT22;5313;48.834;9.228;2023-11-18T04:17:27;5.60;99.90
10530;DHT22;5313;48.834;9.228;2023-11-18T04:19:53;5.60;99.90
10530;DHT22;5313;48.834;9.228;2023-11-18T04:22:21;5.50;99.90
10530;DHT22;5313;48.834;9.228;2023-11-18T04:24:47;5.40;99.90
10530;DHT22;5313;48.834;9.228;2023-11-18T04:27:12;5.30;99.90
10530;DHT22;5313;48.834;9.228;2023-11-18T04:29:38;5.20;99.90
10530;DHT22;5313;48.834;9.228;2023-11-18T04:32:06;5.20;99.90
10530;DHT22;5313;48.834;9.228;2023-11-18T04:34:35;5.20;99.90
10530;DHT22;5313;48.834;9.228;2023-11-18T04:37:01;5.20;99.90
10530;DHT22;5313;48.834;9.228;2023-11-18T04:39:26;5.30;99.90
10530;DHT22;5313;48.834;9.228;2023-11-18T04:41:53;5.20;99.90
10530;DHT22;5313;48.834;9.228;2023-11-18T04:44:19;5.20;99.90
10530;DHT22;5313;48.834;9.228;2023-11-18T04:46:44;5.20;99.90
10530;DHT22;5313;48.834;9.228;2023-11-18T04:49:10;5.30;99.90
10530;DHT22;5313;48.834;9.228;2023-11-18T04:51:36;5.30;99.90
10530;DHT22;5313;48.834;9.228;2023-11-18T04:54:01;5.30;99.90
10530;DHT22;5313;48.834;9.228;2023-11-18T04:56:28;5.30;99.90
10530;DHT22;5313;48.834;9.228;2023-11-18T04:58:54;5.30;99.90
10530;DHT22;5313;48.834;9.228;2023-11-18T05:01:20;5.30;99.90
10530;DHT22;5313;48.834;9.228;2023-11-18T05:03:45;5.30;99.90
10530;DHT22;5313;48.834;9.228;2023-11-18T05:06:11;5.30;99.90
10530;DHT22;5313;48.834;9.228;2023-11-18T05:08:36;5.30;99.90
10530;DHT22;5313;48.834;9.228;2023-11-18T05:11:02;5.20;99.90
10530;DHT22;5313;48.834;9.228;2023-11-18T05:13:30;5.20;99.90
10530;DHT22;5313;48.834;9.228;2023-11-18T05:15:55;5.20;99.90
10530;DHT22;5313;48.834;9.228;2023-11-18T05:18:21;5.10;99.90
10530;DHT22;5313;48.834;9.228;2023-11-18T05:20:46;5.10;99.90
10530;DHT22;5313;48.834;9.228;2023-11-18T05:23:13;5.10;99.90
10530;DHT22;5313;48.834;9.228;2023-11-18T05:25:42;5.10;99.90
10530;DHT22;5313;48.834;9.228;2023-11-18T05:28:08;5.10;99.90
10530;DHT22;5313;48.834;9.228;2023-11-18T05:30:38;5.10;99.90
10530;DHT22;5313;48.834;9.228;2023-11-18T05:33:06;5.00;99.90
10530;DHT22;5313;48.834;9.228;2023-11-18T05:35:32;5.00;99.90
10530;DHT22;5313;48.834;9.228;2023-11-18T05:37:59;5.00;99.90
10530;DHT22;5313;48.834;9.228;2023-11-18T05:40:25;5.00;99.90
10530;DHT22;5313;48.834;9.228;2023-11-18T05:42:53;5.00;99.90
10530;DHT22;5313;48.834;9.228;2023-11-18T05:45:20;5.00;99.90
10530;DHT22;5313;48.834;9.228;2023-11-18T05:48:02;5.00;99.90
10530;DHT22;5313;48.834;9.228;2023-11-18T05:50:28;6.70;99.90
10530;DHT22;5313;48.834;9.228;2023-11-18T05:52:54;4.80;99.90
10530;DHT22;5313;48.834;9.228;2023-11-18T05:55:20;4.70;99.90
10530;DHT22;5313;48.834;9.228;2023-11-18T05:57:46;4.70;99.90
10530;DHT22;5313;48.834;9.228;2023-11-18T06:00:13;4.70;99.90
10530;DHT22;5313;48.834;9.228;2023-11-18T06:02:44;4.60;99.90
10530;DHT22;5313;48.834;9.228;2023-11-18T06:05:10;4.50;99.90
10530;DHT22;5313;48.834;9.228;2023-11-18T06:07:38;4.40;99.90
10530;DHT22;5313;48.834;9.228;2023-11-18T06:10:05;4.50;99.90
10530;DHT22;5313;48.834;9.228;2023-11-18T06:12:32;4.40;99.90
10530;DHT22;5313;48.834;9.228;2023-11-18T06:14:58;4.40;99.90
10530;DHT22;5313;48.834;9.228;2023-11-18T06:17:24;4.40;99.90
10530;DHT22;5313;48.834;9.228;2023-11-18T06:19:49;4.50;99.90
10530;DHT22;5313;48.834;9.228;2023-11-18T06:22:15;4.50;99.90
10530;DHT22;5313;48.834;9.228;2023-11-18T06:24:41;4.40;99.90
10530;DHT22;5313;48.834;9.228;2023-11-18T06:27:06;4.40;99.90
10530;DHT22;5313;48.834;9.228;2023-11-18T06:29:34;4.50;99.90
10530;DHT22;5313;48.834;9.228;2023-11-18T06:32:00;4.50;99.90
10530;DHT22;5313;48.834;9.228;2023-11-18T06:34:25;4.30;99.90
10530;DHT22;5313;48.834;9.228;2023-11-18T06:36:52;4.30;99.90
10530;DHT22;5313;48.834;9.228;2023-11-18T06:39:18;4.20;99.90
10530;DHT22;5313;48.834;9.228;2023-11-18T06:41:45;4.30;99.90
10530;DHT22;5313;48.834;9.228;2023-11-18T06:44:16;4.30;99.90
10530;DHT22;5313;48.834;9.228;2023-11-18T06:46:48;4.30;99.90
10530;DHT22;5313;48.834;9.228;2023-11-18T06:49:16;4.40;99.90
10530;DHT22;5313;48.834;9.228;2023-11-18T06:51:41;4.40;99.90
10530;DHT22;5313;48.834;9.228;2023-11-18T06:54:07;4.40;99.90
10530;DHT22;5313;48.834;9.228;2023-11-18T06:56:40;4.50;99.90
10530;DHT22;5313;48.834;9.228;2023-11-18T06:59:09;4.50;99.90
10530;DHT22;5313;48.834;9.228;2023-11-18T07:01:39;4.50;99.90
10530;DHT22;5313;48.834;9.228;2023-11-18T07:04:06;4.60;99.90
10530;DHT22;5313;48.834;9.228;2023-11-18T07:06:34;4.60;99.90
10530;DHT22;5313;48.834;9.228;2023-11-18T07:09:03;4.60;99.90
10530;DHT22;5313;48.834;9.228;2023-11-18T07:11:34;4.60;99.90
10530;DHT22;5313;48.834;9.228;2023-11-18T07:13:59;4.60;99.90
10530;DHT22;5313;48.834;9.228;2023-11-18T07:16:25;4.70;99.90
10530;DHT22;5313;48.834;9.228;2023-11-18T07:18:51;4.70;99.90
10530;DHT22;5313;48.834;9.228;2023-11-18T07:21:18;4.80;99.90
10530;DHT22;5313;48.834;9.228;2023-11-18T07:23:43;4.80;99.90
10530;DHT22;5313;48.834;9.228;2023-11-18T07:26:09;4.90;99.90
10530;DHT22;5313;48.834;9.228;2023-11-18T07:28:39;4.90;99.90
10530;DHT22;5313;48.834;9.228;2023-11-18T07:31:05;5.00;99.90
10530;DHT22;5313;48.834;9.228;2023-11-18T07:33:31;5.00;99.90
10530;DHT22;5313;48.834;9.228;2023-11-18T07:35:58;4.90;99.90
10530;DHT22;5313;48.834;9.228;2023-11-18T07:38:24;5.00;99.90
10530;DHT22;5313;48.834;9.228;2023-11-18T07:40:49;5.10;99.90
10530;DHT22;5313;48.834;9.228;2023-11-18T07:43:15;5.10;99.90
10530;DHT22;5313;48.834;9.228;2023-11-18T07:45:41;5.20;99.90
10530;DHT22;5313;48.834;9.228;2023-11-18T07:48:08;5.30;99.90
10530;DHT22;5313;48.834;9.228;2023-11-18T07:50:39;5.30;99.90
10530;DHT22;5313;48.834;9.228;2023-11-18T07:53:07;5.40;99.90
10530;DHT22;5313;48.834;9.228;2023-11-18T07:55:33;5.50;99.90
10530;DHT22;5313;48.834;9.228;2023-11-18T07:58:03;5.50;99.90
10530;DHT22;5313;48.834;9.228;2023-11-18T08:00:29;5.60;99.90
10530;DHT22;5313;48.834;9.228;2023-11-18T08:02:58;5.60;99.90
10530;DHT22;5313;48.834;9.228;2023-11-18T08:05:26;5.60;99.90
10530;DHT22;5313;48.834;9.228;2023-11-18T08:07:51;5.70;99.90
10530;DHT22;5313;48.834;9.228;2023-11-18T08:10:18;5.70;99.90
10530;DHT22;5313;48.834;9.228;2023-11-18T08:12:45;5.80;99.90
10530;DHT22;5313;48.834;9.228;2023-11-18T08:15:11;5.90;99.90
10530;DHT22;5313;48.834;9.228;2023-11-18T08:17:37;6.00;99.90
10530;DHT22;5313;48.834;9.228;2023-11-18T08:20:03;6.00;99.90
10530;DHT22;5313;48.834;9.228;2023-11-18T08:22:44;6.10;99.90
10530;DHT22;5313;48.834;9.228;2023-11-18T08:25:13;6.20;99.90
10530;DHT22;5313;48.834;9.228;2023-11-18T08:27:40;6.30;99.90
10530;DHT22;5313;48.834;9.228;2023-11-18T08:30:07;6.30;99.90
10530;DHT22;5313;48.834;9.228;2023-11-18T08:32:37;6.40;99.90
10530;DHT22;5313;48.834;9.228;2023-11-18T08:35:05;6.40;99.90
10530;DHT22;5313;48.834;9.228;2023-11-18T08:37:31;6.30;99.90
10530;DHT22;5313;48.834;9.228;2023-11-18T08:39:57;6.30;99.90
10530;DHT22;5313;48.834;9.228;2023-11-18T08:42:23;6.30;99.90
10530;DHT22;5313;48.834;9.228;2023-11-18T08:44:49;6.30;99.90
10530;DHT22;5313;48.834;9.228;2023-11-18T08:47:15;6.40;99.90
10530;DHT22;5313;48.834;9.228;2023-11-18T08:49:42;6.40;99.90
10530;DHT22;5313;48.834;9.228;2023-11-18T08:52:11;6.50;99.90
10530;DHT22;5313;48.834;9.228;2023-11-18T08:54:38;6.50;99.90
10530;DHT22;5313;48.834;9.228;2023-11-18T08:57:24;6.60;99.90
10530;DHT22;5313;48.834;9.228;2023-11-18T08:59:51;6.70;99.90
10530;DHT22;5313;48.834;9.228;2023-11-18T09:02:20;6.80;99.90
10530;DHT22;5313;48.834;9.228;2023-11-18T09:04:52;6.90;99.90
10530;DHT22;5313;48.834;9.228;2023-11-18T09:07:20;6.90;99.90
10530;DHT22;5313;48.834;9.228;2023-11-18T09:09:47;7.00;99.90
10530;DHT22;5313;48.834;9.228;2023-11-18T09:12:16;7.00;99.90
10530;DHT22;5313;48.834;9.228;2023-11-18T09:14:43;7.10;99.90
10530;DHT22;5313;48.834;9.228;2023-11-18T09:17:11;7.20;99.90
10530;DHT22;5313;48.834;9.228;2023-11-18T09:19:37;7.20;99.90
10530;DHT22;5313;48.834;9.228;2023-11-18T09:22:02;7.50;99.90
10530;DHT22;5313;48.834;9.228;2023-11-18T09:24:30;7.60;99.90
10530;DHT22;5313;48.834;9.228;2023-11-18T09:26:56;7.60;99.90
10530;DHT22;5313;48.834;9.228;2023-11-18T09:29:21;7.70;99.90
10530;DHT22;5313;48.834;9.228;2023-11-18T09:31:50;8.00;99.90
10530;DHT22;5313;48.834;9.228;2023-11-18T09:34:18;8.10;99.90
10530;DHT22;5313;48.834;9.228;2023-11-18T09:36:44;8.20;99.90
10530;DHT22;5313;48.834;9.228;2023-11-18T09:39:10;7.90;99.90
10530;DHT22;5313;48.834;9.228;2023-11-18T09:41:57;7.90;99.90
10530;DHT22;5313;48.834;9.228;2023-11-18T09:44:23;8.00;99.90
10530;DHT22;5313;48.834;9.228;2023-11-18T09:46:56;8.00;99.90
10530;DHT22;5313;48.834;9.228;2023-11-18T09:49:32;8.00;99.90
10530;DHT22;5313;48.834;9.228;2023-11-18T09:52:05;7.90;99.90
10530;DHT22;5313;48.834;9.228;2023-11-18T09:54:43;7.70;99.90
10530;DHT22;5313;48.834;9.228;2023-11-18T09:57:30;7.80;99.90
10530;DHT22;5313;48.834;9.228;2023-11-18T10:00:04;7.80;99.90
10530;DHT22;5313;48.834;9.228;2023-11-18T10:02:47;7.90;99.90
10530;DHT22;5313;48.834;9.228;2023-11-18T10:05:15;8.10;99.90
10530;DHT22;5313;48.834;9.228;2023-11-18T10:07:49;8.00;99.90
10530;DHT22;5313;48.834;9.228;2023-11-18T10:10:15;7.90;99.90
10530;DHT22;5313;48.834;9.228;2023-11-18T10:12:42;8.00;99.90
10530;DHT22;5313;48.834;9.228;2023-11-18T10:15:13;8.00;99.90
10530;DHT22;5313;48.834;9.228;2023-11-18T10:17:45;8.00;99.90
10530;DHT22;5313;48.834;9.228;2023-11-18T10:20:51;8.00;99.90
10530;DHT22;5313;48.834;9.228;2023-11-18T10:23:18;7.90;99.90
10530;DHT22;5313;48.834;9.228;2023-11-18T10:25:51;7.90;99.90
10530;DHT22;5313;48.834;9.228;2023-11-18T10:28:32;8.00;99.90
10530;DHT22;5313;48.834;9.228;2023-11-18T10:31:05;8.10;99.90
10530;DHT22;5313;48.834;9.228;2023-11-18T10:33:40;8.10;99.90
10530;DHT22;5313;48.834;9.228;2023-11-18T10:36:22;8.10;99.90
10530;DHT22;5313;48.834;9.228;2023-11-18T10:38:49;8.10;99.90
10530;DHT22;5313;48.834;9.228;2023-11-18T10:41:18;8.10;99.90
10530;DHT22;5313;48.834;9.228;2023-11-18T10:43:44;8.20;99.90
10530;DHT22;5313;48.834;9.228;2023-11-18T10:46:11;8.30;99.90
10530;DHT22;5313;48.834;9.228;2023-11-18T10:48:41;8.20;99.90
10530;DHT22;5313;48.834;9.228;2023-11-18T10:51:08;8.30;99.90
10530;DHT22;5313;48.834;9.228;2023-11-18T10:53:34;8.40;99.90
10530;DHT22;5313;48.834;9.228;2023-11-18T10:56:04;8.40;99.90
10530;DHT22;5313;48.834;9.228;2023-11-18T10:58:36;8.40;99.90
10530;DHT22;5313;48.834;9.228;2023-11-18T11:01:06;8.40;99.90
10530;DHT22;5313;48.834;9.228;2023-11-18T11:03:55;8.50;99.90
10530;DHT22;5313;48.834;9.228;2023-11-18T11:06:25;8.50;99.90
10530;DHT22;5313;48.834;9.228;2023-11-18T11:08:54;8.60;99.90
10530;DHT22;5313;48.834;9.228;2023-11-18T11:11:21;8.60;99.90
10530;DHT22;5313;48.834;9.228;2023-11-18T11:13:49;8.60;99.90
10530;DHT22;5313;48.834;9.228;2023-11-18T11:16:18;8.60;99.90
10530;DHT22;5313;48.834;9.228;2023-11-18T11:18:48;8.60;99.90
10530;DHT22;5313;48.834;9.228;2023-11-18T11:21:21;8.60;99.90
10530;DHT22;5313;48.834;9.228;2023-11-18T11:24:04;8.50;99.90
10530;DHT22;5313;48.834;9.228;2023-11-18T11:29:51;8.60;99.90
10530;DHT22;5313;48.834;9.228;2023-11-18T11:32:30;8.80;99.90
10530;DHT22;5313;48.834;9.228;2023-11-18T11:35:01;8.80;99.90
10530;DHT22;5313;48.834;9.228;2023-11-18T11:37:33;8.90;99.90
10530;DHT22;5313;48.834;9.228;2023-11-18T11:40:00;8.80;99.90
10530;DHT22;5313;48.834;9.228;2023-11-18T11:42:31;8.90;99.90
10530;DHT22;5313;48.834;9.228;2023-11-18T11:44:57;8.90;99.90
10530;DHT22;5313;48.834;9.228;2023-11-18T11:47:25;8.90;99.90
10530;DHT22;5313;48.834;9.228;2023-11-18T11:50:11;8.90;99.90
10530;DHT22;5313;48.834;9.228;2023-11-18T11:52:51;9.00;99.90
10530;DHT22;5313;48.834;9.228;2023-11-18T11:55:27;8.90;99.90
10530;DHT22;5313;48.834;9.228;2023-11-18T11:57:55;8.90;99.90
10530;DHT22;5313;48.834;9.228;2023-11-18T12:00:24;9.00;99.90
10530;DHT22;5313;48.834;9.228;2023-11-18T12:02:52;9.00;99.90
10530;DHT22;5313;48.834;9.228;2023-11-18T12:05:20;8.90;99.90
10530;DHT22;5313;48.834;9.228;2023-11-18T12:07:52;8.80;99.90
10530;DHT22;5313;48.834;9.228;2023-11-18T12:10:19;8.90;99.90
10530;DHT22;5313;48.834;9.228;2023-11-18T12:12:48;8.90;99.90
10530;DHT22;5313;48.834;9.228;2023-11-18T12:15:14;9.00;99.90
10530;DHT22;5313;48.834;9.228;2023-11-18T12:20:45;8.90;99.90
10530;DHT22;5313;48.834;9.228;2023-11-18T12:23:19;8.90;99.90
10530;DHT22;5313;48.834;9.228;2023-11-18T12:25:48;8.80;99.90
10530;DHT22;5313;48.834;9.228;2023-11-18T12:28:21;8.80;99.90
10530;DHT22;5313;48.834;9.228;2023-11-18T12:30:47;8.80;99.90
10530;DHT22;5313;48.834;9.228;2023-11-18T12:33:23;8.80;99.90
10530;DHT22;5313;48.834;9.228;2023-11-18T12:38:54;8.80;99.90
10530;DHT22;5313;48.834;9.228;2023-11-18T12:41:37;8.70;99.90
10530;DHT22;5313;48.834;9.228;2023-11-18T12:49:37;8.70;99.90
10530;DHT22;5313;48.834;9.228;2023-11-18T12:52:10;8.80;99.90
10530;DHT22;5313;48.834;9.228;2023-11-18T12:54:37;8.80;99.90
10530;DHT22;5313;48.834;9.228;2023-11-18T12:57:03;8.80;99.90
10530;DHT22;5313;48.834;9.228;2023-11-18T12:59:33;8.90;99.90
10530;DHT22;5313;48.834;9.228;2023-11-18T13:01:59;8.90;99.90
10530;DHT22;5313;48.834;9.228;2023-11-18T13:04:27;8.90;99.90
10530;DHT22;5313;48.834;9.228;2023-11-18T13:06:53;8.90;99.90
10530;DHT22;5313;48.834;9.228;2023-11-18T13:09:21;8.90;99.90
10530;DHT22;5313;48.834;9.228;2023-11-18T13:12:02;8.90;99.90
10530;DHT22;5313;48.834;9.228;2023-11-18T13:14:32;8.90;99.90
10530;DHT22;5313;48.834;9.228;2023-11-18T13:17:02;8.90;99.90
10530;DHT22;5313;48.834;9.228;2023-11-18T13:19:31;8.90;99.90
10530;DHT22;5313;48.834;9.228;2023-11-18T13:22:01;8.90;99.90
10530;DHT22;5313;48.834;9.228;2023-11-18T13:24:30;8.90;99.90
10530;DHT22;5313;48.834;9.228;2023-11-18T13:26:56;8.90;99.90
10530;DHT22;5313;48.834;9.228;2023-11-18T13:29:25;8.90;99.90
10530;DHT22;5313;48.834;9.228;2023-11-18T13:31:51;8.90;99.90
10530;DHT22;5313;48.834;9.228;2023-11-18T13:34:18;8.90;99.90
10530;DHT22;5313;48.834;9.228;2023-11-18T13:36:44;8.90;99.90
10530;DHT22;5313;48.834;9.228;2023-11-18T13:39:19;8.90;99.90
10530;DHT22;5313;48.834;9.228;2023-11-18T13:41:49;8.90;99.90
10530;DHT22;5313;48.834;9.228;2023-11-18T13:47:07;9.00;99.90
10530;DHT22;5313;48.834;9.228;2023-11-18T13:49:37;8.90;99.90
10530;DHT22;5313;48.834;9.228;2023-11-18T13:52:05;8.90;99.90
10530;DHT22;5313;48.834;9.228;2023-11-18T13:54:34;8.90;99.90
10530;DHT22;5313;48.834;9.228;2023-11-18T13:57:00;8.90;99.90
10530;DHT22;5313;48.834;9.228;2023-11-18T13:59:26;8.90;99.90
10530;DHT22;5313;48.834;9.228;2023-11-18T14:01:55;8.90;99.90
10530;DHT22;5313;48.834;9.228;2023-11-18T14:04:26;8.90;99.90
10530;DHT22;5313;48.834;9.228;2023-11-18T14:06:53;9.00;99.90
10530;DHT22;5313;48.834;9.228;2023-11-18T14:09:21;8.90;99.90
10530;DHT22;5313;48.834;9.228;2023-11-18T14:11:51;8.90;99.90
10530;DHT22;5313;48.834;9.228;2023-11-18T14:14:16;8.90;99.90
10530;DHT22;5313;48.834;9.228;2023-11-18T14:16:43;8.90;99.90
10530;DHT22;5313;48.834;9.228;2023-11-18T14:19:08;8.90;99.90
10530;DHT22;5313;48.834;9.228;2023-11-18T14:21:34;8.80;99.90
10530;DHT22;5313;48.834;9.228;2023-11-18T14:23:59;8.80;99.90
10530;DHT22;5313;48.834;9.228;2023-11-18T14:26:28;8.90;99.90
10530;DHT22;5313;48.834;9.228;2023-11-18T14:28:54;8.80;99.90
10530;DHT22;5313;48.834;9.228;2023-11-18T14:31:20;8.80;99.90
10530;DHT22;5313;48.834;9.228;2023-11-18T14:33:47;8.80;99.90
10530;DHT22;5313;48.834;9.228;2023-11-18T14:36:13;8.80;99.90
10530;DHT22;5313;48.834;9.228;2023-11-18T14:38:40;8.80;99.90
10530;DHT22;5313;48.834;9.228;2023-11-18T14:41:05;8.80;99.90
10530;DHT22;5313;48.834;9.228;2023-11-18T14:43:33;8.70;99.90
10530;DHT22;5313;48.834;9.228;2023-11-18T14:45:59;8.70;99.90
10530;DHT22;5313;48.834;9.228;2023-11-18T14:48:25;8.70;99.90
10530;DHT22;5313;48.834;9.228;2023-11-18T14:50:50;8.70;99.90
10530;DHT22;5313;48.834;9.228;2023-11-18T14:53:16;8.70;99.90
10530;DHT22;5313;48.834;9.228;2023-11-18T14:55:41;8.60;99.90
10530;DHT22;5313;48.834;9.228;2023-11-18T14:58:07;8.70;99.90
10530;DHT22;5313;48.834;9.228;2023-11-18T15:00:33;8.60;99.90
10530;DHT22;5313;48.834;9.228;2023-11-18T15:02:58;8.60;99.90
10530;DHT22;5313;48.834;9.228;2023-11-18T15:05:25;8.60;99.90
10530;DHT22;5313;48.834;9.228;2023-11-18T15:07:52;8.60;99.90
10530;DHT22;5313;48.834;9.228;2023-11-18T15:10:19;8.60;99.90
10530;DHT22;5313;48.834;9.228;2023-11-18T15:12:49;9.40;99.90
10530;DHT22;5313;48.834;9.228;2023-11-18T15:15:22;8.60;99.90
10530;DHT22;5313;48.834;9.228;2023-11-18T15:17:48;8.60;99.90
10530;DHT22;5313;48.834;9.228;2023-11-18T15:20:17;8.60;99.90
10530;DHT22;5313;48.834;9.228;2023-11-18T15:22:48;8.50;99.90
10530;DHT22;5313;48.834;9.228;2023-11-18T15:25:14;8.50;99.90
10530;DHT22;5313;48.834;9.228;2023-11-18T15:27:44;8.50;99.90
10530;DHT22;5313;48.834;9.228;2023-11-18T15:30:16;8.50;99.90
10530;DHT22;5313;48.834;9.228;2023-11-18T15:32:46;8.50;99.90
10530;DHT22;5313;48.834;9.228;2023-11-18T15:35:13;8.40;99.90
10530;DHT22;5313;48.834;9.228;2023-11-18T15:37:40;8.40;99.90
10530;DHT22;5313;48.834;9.228;2023-11-18T15:40:12;8.40;99.90
10530;DHT22;5313;48.834;9.228;2023-11-18T15:42:43;8.40;99.90
10530;DHT22;5313;48.834;9.228;2023-11-18T15:45:15;8.40;99.90
10530;DHT22;5313;48.834;9.228;2023-11-18T15:47:41;8.30;99.90
10530;DHT22;5313;48.834;9.228;2023-11-18T15:50:11;8.40;99.90
10530;DHT22;5313;48.834;9.228;2023-11-18T15:52:43;8.30;99.90
10530;DHT22;5313;48.834;9.228;2023-11-18T15:55:09;8.30;99.90
10530;DHT22;5313;48.834;9.228;2023-11-18T15:57:38;8.40;99.90
10530;DHT22;5313;48.834;9.228;2023-11-18T16:00:05;8.40;99.90
10530;DHT22;5313;48.834;9.228;2023-11-18T16:02:35;8.40;99.90
10530;DHT22;5313;48.834;9.228;2023-11-18T16:05:00;8.30;99.90
10530;DHT22;5313;48.834;9.228;2023-11-18T16:07:25;8.40;99.90
10530;DHT22;5313;48.834;9.228;2023-11-18T16:09:51;8.30;99.90
10530;DHT22;5313;48.834;9.228;2023-11-18T16:12:16;8.30;99.90
10530;DHT22;5313;48.834;9.228;2023-11-18T16:14:42;8.30;99.90
10530;DHT22;5313;48.834;9.228;2023-11-18T16:17:07;8.30;99.90
10530;DHT22;5313;48.834;9.228;2023-11-18T16:19:33;8.30;99.90
10530;DHT22;5313;48.834;9.228;2023-11-18T16:22:00;8.20;99.90
10530;DHT22;5313;48.834;9.228;2023-11-18T16:24:25;8.20;99.90
10530;DHT22;5313;48.834;9.228;2023-11-18T16:26:51;8.20;99.90
10530;DHT22;5313;48.834;9.228;2023-11-18T16:29:18;8.20;99.90